Minden, Canada
Current Conditions -  °F | °C
As of 2:25 PM on Thursday 27 Nov 2014 (Local Time) from CYQA Reporting Station
Scattered Clouds Scattered Clouds  
Wind Chill: 14°   Ceiling: Unl
Heat Index: 25°   Visibility: 9mi
Dew Point: 18°   Wind: 12mph
Humidity: 74%   Direction: 310°NW
Pressure: 30.03"   Gusts: NA
Location:  44.93°N, 78.73°W
Report Text: CYQA 271925Z AUTO 31010KT 270V350 9SM SCT024 M04/M08 A3003 RMK SLP186
Loading
Personal Weather Stations






























Interactive Weather Map New forecast layout! Learn more

10-Day Weather Forecast

Advertisements
Track Severe Weather on mobile